sensor_id;sensor_type;location;lat;lon;timestamp;pressure;altitude;pressure_sealevel;temperature;humidity
54592;BME280;40488;48.558;18.150;2022-09-09T00:01:04;99364.50;;;17.41;80.76
54592;BME280;40488;48.558;18.150;2022-09-09T00:03:42;99374.72;;;17.44;80.74
54592;BME280;40488;48.558;18.150;2022-09-09T00:06:21;99371.34;;;17.42;80.75
54592;BME280;40488;48.558;18.150;2022-09-09T00:09:02;99372.34;;;17.38;80.90
54592;BME280;40488;48.558;18.150;2022-09-09T00:11:39;99371.56;;;17.36;80.85
54592;BME280;40488;48.558;18.150;2022-09-09T00:14:15;99374.22;;;17.33;81.02
54592;BME280;40488;48.558;18.150;2022-09-09T00:16:51;99371.56;;;17.36;81.15
54592;BME280;40488;48.558;18.150;2022-09-09T00:19:26;99367.88;;;17.43;81.05
54592;BME280;40488;48.558;18.150;2022-09-09T00:22:07;99364.38;;;17.44;80.92
54592;BME280;40488;48.558;18.150;2022-09-09T00:24:42;99364.50;;;17.41;80.62
54592;BME280;40488;48.558;18.150;2022-09-09T00:27:18;99358.69;;;17.35;80.46
54592;BME280;40488;48.558;18.150;2022-09-09T00:29:52;99359.09;;;17.23;80.60
54592;BME280;40488;48.558;18.150;2022-09-09T00:32:22;99362.03;;;17.12;80.54
54592;BME280;40488;48.558;18.150;2022-09-09T00:34:56;99364.94;;;17.02;80.68
54592;BME280;40488;48.558;18.150;2022-09-09T00:37:29;99361.53;;;17.01;80.82
54592;BME280;40488;48.558;18.150;2022-09-09T00:40:07;99362.13;;;17.09;80.82
54592;BME280;40488;48.558;18.150;2022-09-09T00:42:45;99364.09;;;17.01;80.69
54592;BME280;40488;48.558;18.150;2022-09-09T00:45:37;99360.00;;;16.96;81.07
54592;BME280;40488;48.558;18.150;2022-09-09T00:48:14;99357.38;;;16.97;81.12
54592;BME280;40488;48.558;18.150;2022-09-09T00:50:48;99354.59;;;17.03;80.97
54592;BME280;40488;48.558;18.150;2022-09-09T00:53:29;99357.44;;;16.96;80.84
54592;BME280;40488;48.558;18.150;2022-09-09T00:56:11;99360.94;;;16.93;80.76
54592;BME280;40488;48.558;18.150;2022-09-09T00:58:43;99362.53;;;16.97;80.97
54592;BME280;40488;48.558;18.150;2022-09-09T01:01:17;99366.59;;;17.04;80.89
54592;BME280;40488;48.558;18.150;2022-09-09T01:03:49;99370.78;;;17.08;81.06
54592;BME280;40488;48.558;18.150;2022-09-09T01:06:24;99365.63;;;17.08;80.58
54592;BME280;40488;48.558;18.150;2022-09-09T01:09:17;99371.25;;;16.93;80.19
54592;BME280;40488;48.558;18.150;2022-09-09T01:11:55;99371.09;;;16.70;80.25
54592;BME280;40488;48.558;18.150;2022-09-09T01:14:38;99366.84;;;16.69;80.62
54592;BME280;40488;48.558;18.150;2022-09-09T01:17:12;99363.63;;;16.62;80.50
54592;BME280;40488;48.558;18.150;2022-09-09T01:20:02;99375.94;;;16.53;80.64
54592;BME280;40488;48.558;18.150;2022-09-09T01:22:45;99374.16;;;16.55;80.88
54592;BME280;40488;48.558;18.150;2022-09-09T01:25:30;99373.41;;;16.50;80.73
54592;BME280;40488;48.558;18.150;2022-09-09T01:28:11;99374.56;;;16.40;81.20
54592;BME280;40488;48.558;18.150;2022-09-09T01:30:42;99362.91;;;16.28;80.98
54592;BME280;40488;48.558;18.150;2022-09-09T01:33:17;99362.13;;;16.25;81.26
54592;BME280;40488;48.558;18.150;2022-09-09T01:35:49;99373.34;;;16.24;81.65
54592;BME280;40488;48.558;18.150;2022-09-09T01:38:25;99384.50;;;16.23;81.63
54592;BME280;40488;48.558;18.150;2022-09-09T01:40:54;99390.72;;;16.16;81.68
54592;BME280;40488;48.558;18.150;2022-09-09T01:43:34;99394.09;;;16.18;81.77
54592;BME280;40488;48.558;18.150;2022-09-09T01:46:04;99394.09;;;16.18;81.84
54592;BME280;40488;48.558;18.150;2022-09-09T01:48:36;99405.44;;;16.10;81.83
54592;BME280;40488;48.558;18.150;2022-09-09T01:51:09;99409.81;;;16.08;81.72
54592;BME280;40488;48.558;18.150;2022-09-09T01:53:39;99413.34;;;16.04;82.17
54592;BME280;40488;48.558;18.150;2022-09-09T01:56:20;99410.09;;;15.98;82.34
54592;BME280;40488;48.558;18.150;2022-09-09T01:59:06;99397.56;;;15.86;82.32
54592;BME280;40488;48.558;18.150;2022-09-09T02:01:47;99410.44;;;15.84;82.69
54592;BME280;40488;48.558;18.150;2022-09-09T02:04:32;99408.78;;;15.83;82.71
54592;BME280;40488;48.558;18.150;2022-09-09T02:07:22;99411.97;;;15.91;83.00
54592;BME280;40488;48.558;18.150;2022-09-09T02:10:01;99410.06;;;15.99;82.65
54592;BME280;40488;48.558;18.150;2022-09-09T02:12:31;99412.69;;;15.98;82.97
54592;BME280;40488;48.558;18.150;2022-09-09T02:15:09;99415.28;;;15.96;82.94
54592;BME280;40488;48.558;18.150;2022-09-09T02:17:49;99420.69;;;15.87;82.66
54592;BME280;40488;48.558;18.150;2022-09-09T02:20:19;99424.22;;;15.83;83.03
54592;BME280;40488;48.558;18.150;2022-09-09T02:22:55;99410.31;;;15.90;82.69
54592;BME280;40488;48.558;18.150;2022-09-09T02:25:28;99416.31;;;15.89;82.93
54592;BME280;40488;48.558;18.150;2022-09-09T02:28:08;99413.81;;;15.86;82.79
54592;BME280;40488;48.558;18.150;2022-09-09T02:30:40;99420.59;;;15.90;82.89
54592;BME280;40488;48.558;18.150;2022-09-09T02:33:13;99420.34;;;15.99;83.16
54592;BME280;40488;48.558;18.150;2022-09-09T02:35:46;99416.72;;;16.06;82.83
54592;BME280;40488;48.558;18.150;2022-09-09T02:38:21;99416.72;;;16.06;82.57
54592;BME280;40488;48.558;18.150;2022-09-09T02:41:01;99428.00;;;16.02;82.62
54592;BME280;40488;48.558;18.150;2022-09-09T02:43:31;99426.47;;;15.95;82.21
54592;BME280;40488;48.558;18.150;2022-09-09T02:46:11;99417.94;;;15.93;82.27
54592;BME280;40488;48.558;18.150;2022-09-09T02:48:52;99418.28;;;15.80;82.34
54592;BME280;40488;48.558;18.150;2022-09-09T02:51:35;99422.84;;;15.70;82.38
54592;BME280;40488;48.558;18.150;2022-09-09T02:54:12;99426.22;;;15.72;82.74
54592;BME280;40488;48.558;18.150;2022-09-09T02:56:47;99435.03;;;15.62;82.55
54592;BME280;40488;48.558;18.150;2022-09-09T02:59:20;99438.50;;;15.61;83.27
54592;BME280;40488;48.558;18.150;2022-09-09T03:01:51;99440.13;;;15.65;83.20
54592;BME280;40488;48.558;18.150;2022-09-09T03:04:21;99436.50;;;15.72;83.15
54592;BME280;40488;48.558;18.150;2022-09-09T03:06:52;99440.91;;;15.67;83.19
54592;BME280;40488;48.558;18.150;2022-09-09T03:09:21;99441.88;;;15.63;83.30
54592;BME280;40488;48.558;18.150;2022-09-09T03:11:50;99435.03;;;15.62;83.23
54592;BME280;40488;48.558;18.150;2022-09-09T03:14:20;99434.34;;;15.57;82.92
54592;BME280;40488;48.558;18.150;2022-09-09T03:16:54;99435.53;;;15.42;82.79
54592;BME280;40488;48.558;18.150;2022-09-09T03:19:24;99438.16;;;15.39;83.34
54592;BME280;40488;48.558;18.150;2022-09-09T03:21:53;99439.81;;;15.40;83.23
54592;BME280;40488;48.558;18.150;2022-09-09T03:24:23;99430.19;;;15.50;83.16
54592;BME280;40488;48.558;18.150;2022-09-09T03:26:53;99430.88;;;15.58;83.42
54592;BME280;40488;48.558;18.150;2022-09-09T03:29:23;99435.81;;;15.66;83.35
54592;BME280;40488;48.558;18.150;2022-09-09T03:31:56;99432.50;;;15.61;83.39
54592;BME280;40488;48.558;18.150;2022-09-09T03:34:25;99430.13;;;15.55;83.13
54592;BME280;40488;48.558;18.150;2022-09-09T03:36:56;99427.53;;;15.55;83.28
54592;BME280;40488;48.558;18.150;2022-09-09T03:39:27;99433.38;;;15.61;82.92
54592;BME280;40488;48.558;18.150;2022-09-09T03:41:58;99429.81;;;15.65;82.85
54592;BME280;40488;48.558;18.150;2022-09-09T03:44:32;99430.81;;;15.60;83.05
54592;BME280;40488;48.558;18.150;2022-09-09T03:47:02;99433.38;;;15.60;83.11
54592;BME280;40488;48.558;18.150;2022-09-09T03:49:31;99429.88;;;15.62;83.08
54592;BME280;40488;48.558;18.150;2022-09-09T03:52:00;99435.13;;;15.59;83.00
54592;BME280;40488;48.558;18.150;2022-09-09T03:54:29;99430.13;;;15.55;82.67
54592;BME280;40488;48.558;18.150;2022-09-09T03:56:57;99436.06;;;15.57;82.99
54592;BME280;40488;48.558;18.150;2022-09-09T03:59:26;99436.88;;;15.59;83.13
54592;BME280;40488;48.558;18.150;2022-09-09T04:01:55;99433.31;;;15.64;82.91
54592;BME280;40488;48.558;18.150;2022-09-09T04:04:26;99431.47;;;15.68;83.02
54592;BME280;40488;48.558;18.150;2022-09-09T04:06:55;99432.25;;;15.71;83.15
54592;BME280;40488;48.558;18.150;2022-09-09T04:09:23;99433.13;;;15.70;82.80
54592;BME280;40488;48.558;18.150;2022-09-09T04:11:52;99435.75;;;15.69;82.73
54592;BME280;40488;48.558;18.150;2022-09-09T04:14:22;99438.44;;;15.64;82.28
54592;BME280;40488;48.558;18.150;2022-09-09T04:16:55;99441.28;;;15.54;82.06
54592;BME280;40488;48.558;18.150;2022-09-09T04:19:27;99438.44;;;15.27;82.17
54592;BME280;40488;48.558;18.150;2022-09-09T04:21:56;99428.41;;;15.17;82.69
54592;BME280;40488;48.558;18.150;2022-09-09T04:24:25;99431.88;;;15.16;83.00
54592;BME280;40488;48.558;18.150;2022-09-09T04:26:54;99431.81;;;15.17;82.93
54592;BME280;40488;48.558;18.150;2022-09-09T04:29:23;99422.41;;;15.18;83.05
54592;BME280;40488;48.558;18.150;2022-09-09T04:31:52;99426.75;;;15.14;83.38
54592;BME280;40488;48.558;18.150;2022-09-09T04:34:21;99421.44;;;15.22;82.84
54592;BME280;40488;48.558;18.150;2022-09-09T04:36:51;99419.81;;;15.18;82.85
54592;BME280;40488;48.558;18.150;2022-09-09T04:39:20;99417.25;;;15.18;82.92
54592;BME280;40488;48.558;18.150;2022-09-09T04:41:48;99427.44;;;15.22;82.82
54592;BME280;40488;48.558;18.150;2022-09-09T04:44:18;99427.59;;;15.15;83.11
54592;BME280;40488;48.558;18.150;2022-09-09T04:46:47;99429.22;;;15.19;83.33
54592;BME280;40488;48.558;18.150;2022-09-09T04:49:16;99430.97;;;15.18;83.13
54592;BME280;40488;48.558;18.150;2022-09-09T04:51:45;99432.63;;;15.21;83.14
54592;BME280;40488;48.558;18.150;2022-09-09T04:54:15;99440.31;;;15.21;83.31
54592;BME280;40488;48.558;18.150;2022-09-09T04:56:45;99434.28;;;15.22;83.59
54592;BME280;40488;48.558;18.150;2022-09-09T04:59:13;99436.78;;;15.25;83.24
54592;BME280;40488;48.558;18.150;2022-09-09T05:01:46;99436.84;;;15.22;83.22
54592;BME280;40488;48.558;18.150;2022-09-09T05:04:15;99444.44;;;15.28;83.88
54592;BME280;40488;48.558;18.150;2022-09-09T05:06:44;99438.38;;;15.30;83.29
54592;BME280;40488;48.558;18.150;2022-09-09T05:09:15;99434.03;;;15.32;83.45
54592;BME280;40488;48.558;18.150;2022-09-09T05:11:45;99435.84;;;15.29;83.77
54592;BME280;40488;48.558;18.150;2022-09-09T05:14:28;99433.19;;;15.32;83.92
54592;BME280;40488;48.558;18.150;2022-09-09T05:17:00;99446.84;;;15.35;84.34
54592;BME280;40488;48.558;18.150;2022-09-09T05:19:28;99445.91;;;15.38;84.05
54592;BME280;40488;48.558;18.150;2022-09-09T05:21:58;99439.75;;;15.43;84.55
54592;BME280;40488;48.558;18.150;2022-09-09T05:24:38;99437.72;;;15.59;84.61
54592;BME280;40488;48.558;18.150;2022-09-09T05:27:07;99442.44;;;15.74;84.78
54592;BME280;40488;48.558;18.150;2022-09-09T05:29:40;99433.59;;;15.86;84.69
54592;BME280;40488;48.558;18.150;2022-09-09T05:32:13;99427.28;;;15.97;84.34
54592;BME280;40488;48.558;18.150;2022-09-09T05:34:45;99436.22;;;16.15;84.40
54592;BME280;40488;48.558;18.150;2022-09-09T05:37:15;99425.56;;;16.27;84.00
54592;BME280;40488;48.558;18.150;2022-09-09T05:39:45;99432.84;;;16.44;84.23
54592;BME280;40488;48.558;18.150;2022-09-09T05:42:13;99434.22;;;16.57;83.98
54592;BME280;40488;48.558;18.150;2022-09-09T05:44:43;99432.22;;;16.66;83.76
54592;BME280;40488;48.558;18.150;2022-09-09T05:47:12;99433.63;;;16.77;83.52
54592;BME280;40488;48.558;18.150;2022-09-09T05:49:43;99443.53;;;16.90;83.82
54592;BME280;40488;48.558;18.150;2022-09-09T05:52:11;99441.44;;;17.01;83.49
54592;BME280;40488;48.558;18.150;2022-09-09T05:54:40;99435.97;;;17.12;83.69
54592;BME280;40488;48.558;18.150;2022-09-09T05:57:11;99446.06;;;17.19;83.58
54592;BME280;40488;48.558;18.150;2022-09-09T05:59:40;99449.25;;;17.27;83.14
54592;BME280;40488;48.558;18.150;2022-09-09T06:02:09;99443.97;;;17.30;83.24
54592;BME280;40488;48.558;18.150;2022-09-09T06:04:38;99443.75;;;17.38;83.07
54592;BME280;40488;48.558;18.150;2022-09-09T06:07:07;99442.50;;;17.50;82.95
54592;BME280;40488;48.558;18.150;2022-09-09T06:09:35;99433.53;;;17.61;82.72
54592;BME280;40488;48.558;18.150;2022-09-09T06:12:08;99437.47;;;17.73;82.43
54592;BME280;40488;48.558;18.150;2022-09-09T06:14:39;99430.03;;;17.88;82.03
54592;BME280;40488;48.558;18.150;2022-09-09T06:17:14;99421.75;;;18.03;81.60
54592;BME280;40488;48.558;18.150;2022-09-09T06:19:42;99422.06;;;18.19;81.06
54592;BME280;40488;48.558;18.150;2022-09-09T06:22:11;99431.25;;;18.26;80.42
54592;BME280;40488;48.558;18.150;2022-09-09T06:24:41;99432.88;;;18.30;79.80
54592;BME280;40488;48.558;18.150;2022-09-09T06:27:09;99443.19;;;18.30;79.67
54592;BME280;40488;48.558;18.150;2022-09-09T06:29:43;99437.91;;;18.33;79.55
54592;BME280;40488;48.558;18.150;2022-09-09T06:32:12;99442.94;;;18.38;79.32
54592;BME280;40488;48.558;18.150;2022-09-09T06:34:40;99437.19;;;18.54;79.44
54592;BME280;40488;48.558;18.150;2022-09-09T06:37:09;99437.59;;;18.65;78.70
54592;BME280;40488;48.558;18.150;2022-09-09T06:39:43;99433.69;;;18.79;78.43
54592;BME280;40488;48.558;18.150;2022-09-09T06:42:13;99436.69;;;18.90;78.01
54592;BME280;40488;48.558;18.150;2022-09-09T06:44:57;99442.25;;;19.02;77.39
54592;BME280;40488;48.558;18.150;2022-09-09T06:47:54;99454.63;;;19.16;77.04
54592;BME280;40488;48.558;18.150;2022-09-09T06:50:24;99455.94;;;19.26;76.54
54592;BME280;40488;48.558;18.150;2022-09-09T06:52:52;99453.88;;;19.34;76.07
54592;BME280;40488;48.558;18.150;2022-09-09T06:55:21;99450.06;;;19.44;75.93
54592;BME280;40488;48.558;18.150;2022-09-09T06:57:50;99446.94;;;19.58;75.63
54592;BME280;40488;48.558;18.150;2022-09-09T07:00:24;99452.50;;;19.69;75.40
54592;BME280;40488;48.558;18.150;2022-09-09T07:02:52;99446.22;;;19.74;75.03
54592;BME280;40488;48.558;18.150;2022-09-09T07:05:22;99440.66;;;19.83;74.61
54592;BME280;40488;48.558;18.150;2022-09-09T07:07:52;99443.59;;;19.96;74.45
54592;BME280;40488;48.558;18.150;2022-09-09T07:10:20;99438.69;;;20.08;74.12
54592;BME280;40488;48.558;18.150;2022-09-09T07:12:50;99431.31;;;20.20;73.64
54592;BME280;40488;48.558;18.150;2022-09-09T07:15:24;99422.25;;;20.30;73.33
54592;BME280;40488;48.558;18.150;2022-09-09T07:17:54;99416.66;;;20.39;72.95
54592;BME280;40488;48.558;18.150;2022-09-09T07:20:23;99415.25;;;20.50;72.68
54592;BME280;40488;48.558;18.150;2022-09-09T07:22:54;99419.34;;;20.56;72.19
54592;BME280;40488;48.558;18.150;2022-09-09T07:25:23;99423.34;;;20.63;71.93
54592;BME280;40488;48.558;18.150;2022-09-09T07:27:52;99418.34;;;20.77;71.56
54592;BME280;40488;48.558;18.150;2022-09-09T07:30:20;99416.84;;;20.90;70.50
54592;BME280;40488;48.558;18.150;2022-09-09T07:32:56;99413.69;;;21.02;70.72
54592;BME280;40488;48.558;18.150;2022-09-09T07:35:27;99418.19;;;21.17;70.51
54592;BME280;40488;48.558;18.150;2022-09-09T07:37:56;99417.59;;;21.29;69.61
54592;BME280;40488;48.558;18.150;2022-09-09T07:40:25;99423.69;;;21.28;68.86
54592;BME280;40488;48.558;18.150;2022-09-09T07:42:54;99416.59;;;21.32;68.46
54592;BME280;40488;48.558;18.150;2022-09-09T07:45:23;99406.59;;;21.42;68.56
54592;BME280;40488;48.558;18.150;2022-09-09T07:47:52;99407.66;;;21.55;67.96
54592;BME280;40488;48.558;18.150;2022-09-09T07:50:24;99401.88;;;21.67;67.60
54592;BME280;40488;48.558;18.150;2022-09-09T07:52:53;99400.06;;;21.69;67.58
54592;BME280;40488;48.558;18.150;2022-09-09T07:55:24;99402.47;;;21.72;67.39
54592;BME280;40488;48.558;18.150;2022-09-09T07:57:53;99412.56;;;21.78;67.56
54592;BME280;40488;48.558;18.150;2022-09-09T08:00:23;99410.53;;;21.84;67.89
54592;BME280;40488;48.558;18.150;2022-09-09T08:02:57;99425.66;;;21.93;67.81
54592;BME280;40488;48.558;18.150;2022-09-09T08:05:27;99428.94;;;21.97;66.90
54592;BME280;40488;48.558;18.150;2022-09-09T08:07:55;99420.66;;;22.06;66.71
54592;BME280;40488;48.558;18.150;2022-09-09T08:10:24;99418.53;;;22.14;66.22
54592;BME280;40488;48.558;18.150;2022-09-09T08:12:54;99416.53;;;22.19;66.27
54592;BME280;40488;48.558;18.150;2022-09-09T08:15:43;99416.34;;;22.22;66.34
54592;BME280;40488;48.558;18.150;2022-09-09T08:18:12;99414.16;;;22.15;66.33
54592;BME280;40488;48.558;18.150;2022-09-09T08:20:43;99424.22;;;22.21;66.26
54592;BME280;40488;48.558;18.150;2022-09-09T08:23:11;99429.69;;;22.32;66.05
54592;BME280;40488;48.558;18.150;2022-09-09T08:25:41;99429.66;;;22.49;66.17
54592;BME280;40488;48.558;18.150;2022-09-09T08:28:10;99432.59;;;22.58;65.51
54592;BME280;40488;48.558;18.150;2022-09-09T08:30:38;99431.69;;;22.59;65.17
54592;BME280;40488;48.558;18.150;2022-09-09T08:33:09;99428.03;;;22.63;65.04
54592;BME280;40488;48.558;18.150;2022-09-09T08:35:38;99420.81;;;22.68;64.74
54592;BME280;40488;48.558;18.150;2022-09-09T08:38:07;99421.84;;;22.82;64.60
54592;BME280;40488;48.558;18.150;2022-09-09T08:40:45;99422.09;;;22.93;64.39
54592;BME280;40488;48.558;18.150;2022-09-09T08:43:18;99415.78;;;23.12;64.89
54592;BME280;40488;48.558;18.150;2022-09-09T08:45:55;99419.28;;;23.27;63.97
54592;BME280;40488;48.558;18.150;2022-09-09T08:48:43;99419.78;;;23.33;62.92
54592;BME280;40488;48.558;18.150;2022-09-09T08:51:13;99425.81;;;23.34;61.37
54592;BME280;40488;48.558;18.150;2022-09-09T08:53:48;99423.38;;;23.31;61.45
54592;BME280;40488;48.558;18.150;2022-09-09T08:56:27;99428.50;;;23.32;61.38
54592;BME280;40488;48.558;18.150;2022-09-09T08:59:03;99421.97;;;23.41;60.96
54592;BME280;40488;48.558;18.150;2022-09-09T09:07:39;99415.16;;;23.68;60.27
54592;BME280;40488;48.558;18.150;2022-09-09T09:10:23;99418.31;;;23.73;60.29
54592;BME280;40488;48.558;18.150;2022-09-09T09:13:17;99412.41;;;23.85;59.88
54592;BME280;40488;48.558;18.150;2022-09-09T09:15:55;99411.19;;;23.91;59.42
54592;BME280;40488;48.558;18.150;2022-09-09T09:18:27;99419.88;;;24.06;58.66
54592;BME280;40488;48.558;18.150;2022-09-09T09:21:02;99405.75;;;24.10;56.72
54592;BME280;40488;48.558;18.150;2022-09-09T09:23:39;99413.56;;;24.24;56.46
54592;BME280;40488;48.558;18.150;2022-09-09T09:26:11;99402.66;;;24.45;55.92
54592;BME280;40488;48.558;18.150;2022-09-09T09:28:41;99411.53;;;24.57;54.91
54592;BME280;40488;48.558;18.150;2022-09-09T09:31:15;99413.03;;;24.47;53.64
54592;BME280;40488;48.558;18.150;2022-09-09T09:33:49;99411.06;;;24.36;53.98
54592;BME280;40488;48.558;18.150;2022-09-09T09:36:33;99417.22;;;24.35;55.52
54592;BME280;40488;48.558;18.150;2022-09-09T09:39:04;99415.25;;;24.39;53.19
54592;BME280;40488;48.558;18.150;2022-09-09T09:42:09;99416.75;;;24.29;53.02
54592;BME280;40488;48.558;18.150;2022-09-09T09:44:40;99412.47;;;24.14;51.97
54592;BME280;40488;48.558;18.150;2022-09-09T09:47:18;99406.69;;;24.09;52.43
54592;BME280;40488;48.558;18.150;2022-09-09T09:50:00;99403.97;;;24.24;52.26
54592;BME280;40488;48.558;18.150;2022-09-09T09:52:35;99399.41;;;24.42;49.94
54592;BME280;40488;48.558;18.150;2022-09-09T09:55:12;99393.59;;;24.65;50.14
54592;BME280;40488;48.558;18.150;2022-09-09T09:57:47;99396.22;;;24.79;48.88
54592;BME280;40488;48.558;18.150;2022-09-09T10:00:18;99387.53;;;24.93;48.63
54592;BME280;40488;48.558;18.150;2022-09-09T10:02:59;99410.56;;;25.13;48.58
54592;BME280;40488;48.558;18.150;2022-09-09T10:05:35;99407.47;;;25.20;47.27
54592;BME280;40488;48.558;18.150;2022-09-09T10:08:11;99406.28;;;25.39;48.27
54592;BME280;40488;48.558;18.150;2022-09-09T10:10:57;99410.69;;;25.51;47.60
54592;BME280;40488;48.558;18.150;2022-09-09T10:13:39;99404.88;;;25.60;47.98
54592;BME280;40488;48.558;18.150;2022-09-09T10:16:26;99412.13;;;25.69;47.68
54592;BME280;40488;48.558;18.150;2022-09-09T10:18:59;99413.91;;;25.81;46.41
54592;BME280;40488;48.558;18.150;2022-09-09T10:21:46;99413.91;;;25.81;45.65
54592;BME280;40488;48.558;18.150;2022-09-09T10:24:51;99407.34;;;26.01;46.50
54592;BME280;40488;48.558;18.150;2022-09-09T10:27:30;99402.50;;;26.07;45.53
54592;BME280;40488;48.558;18.150;2022-09-09T10:30:12;99396.94;;;25.99;45.28
54592;BME280;40488;48.558;18.150;2022-09-09T10:32:49;99393.81;;;25.94;45.58
54592;BME280;40488;48.558;18.150;2022-09-09T10:35:27;99393.97;;;26.18;46.78
54592;BME280;40488;48.558;18.150;2022-09-09T10:38:13;99384.84;;;26.23;46.39
54592;BME280;40488;48.558;18.150;2022-09-09T10:41:07;99396.13;;;26.36;46.31
54592;BME280;40488;48.558;18.150;2022-09-09T10:44:02;99391.56;;;26.63;46.64
54592;BME280;40488;48.558;18.150;2022-09-09T10:46:50;99408.41;;;26.85;45.35
54592;BME280;40488;48.558;18.150;2022-09-09T10:49:33;99399.06;;;26.81;45.08
54592;BME280;40488;48.558;18.150;2022-09-09T10:52:14;99398.78;;;26.73;44.10
54592;BME280;40488;48.558;18.150;2022-09-09T10:54:55;99399.41;;;26.63;42.76
54592;BME280;40488;48.558;18.150;2022-09-09T10:57:27;99404.56;;;26.65;44.14
54592;BME280;40488;48.558;18.150;2022-09-09T11:00:04;99394.16;;;26.76;44.20
54592;BME280;40488;48.558;18.150;2022-09-09T11:02:35;99403.06;;;26.86;46.43
54592;BME280;40488;48.558;18.150;2022-09-09T11:05:10;99390.72;;;26.76;47.96
54592;BME280;40488;48.558;18.150;2022-09-09T11:07:48;99385.00;;;26.45;48.17
54592;BME280;40488;48.558;18.150;2022-09-09T11:10:24;99391.53;;;26.02;47.18
54592;BME280;40488;48.558;18.150;2022-09-09T11:12:58;99397.69;;;25.76;47.44
54592;BME280;40488;48.558;18.150;2022-09-09T11:15:31;99398.84;;;25.72;46.59
54592;BME280;40488;48.558;18.150;2022-09-09T11:18:07;99400.31;;;25.76;44.55
54592;BME280;40488;48.558;18.150;2022-09-09T11:20:40;99389.09;;;25.74;43.95
54592;BME280;40488;48.558;18.150;2022-09-09T11:23:13;99393.16;;;25.65;43.14
54592;BME280;40488;48.558;18.150;2022-09-09T11:25:48;99399.66;;;25.60;42.25
54592;BME280;40488;48.558;18.150;2022-09-09T11:28:36;99400.91;;;25.54;41.42
54592;BME280;40488;48.558;18.150;2022-09-09T11:31:21;99400.38;;;25.62;42.25
54592;BME280;40488;48.558;18.150;2022-09-09T11:36:59;99398.84;;;25.72;42.85
54592;BME280;40488;48.558;18.150;2022-09-09T11:39:55;99395.06;;;25.76;41.74
54592;BME280;40488;48.558;18.150;2022-09-09T11:42:28;99400.09;;;25.79;41.78
54592;BME280;40488;48.558;18.150;2022-09-09T11:44:57;99405.41;;;25.77;41.64
54592;BME280;40488;48.558;18.150;2022-09-09T11:47:37;99398.63;;;25.75;41.10
54592;BME280;40488;48.558;18.150;2022-09-09T11:50:28;99401.38;;;25.86;41.27
54592;BME280;40488;48.558;18.150;2022-09-09T11:53:17;99386.94;;;25.93;40.73
54592;BME280;40488;48.558;18.150;2022-09-09T11:56:00;99379.88;;;26.06;40.67
54592;BME280;40488;48.558;18.150;2022-09-09T11:58:36;99379.47;;;26.37;40.73
54592;BME280;40488;48.558;18.150;2022-09-09T12:01:25;99384.00;;;26.72;41.44
54592;BME280;40488;48.558;18.150;2022-09-09T12:04:16;99388.44;;;26.95;42.17
54592;BME280;40488;48.558;18.150;2022-09-09T12:06:52;99388.06;;;26.88;42.14
54592;BME280;40488;48.558;18.150;2022-09-09T12:09:42;99378.84;;;26.83;43.08
54592;BME280;40488;48.558;18.150;2022-09-09T12:12:25;99387.16;;;26.77;43.86
54592;BME280;40488;48.558;18.150;2022-09-09T12:14:58;99385.34;;;26.90;43.94
54592;BME280;40488;48.558;18.150;2022-09-09T12:17:31;99385.09;;;26.93;43.14
54592;BME280;40488;48.558;18.150;2022-09-09T12:20:08;99382.78;;;27.01;42.74
54592;BME280;40488;48.558;18.150;2022-09-09T12:25:32;99376.56;;;27.02;43.38
54592;BME280;40488;48.558;18.150;2022-09-09T12:28:08;99378.53;;;27.11;44.52
54592;BME280;40488;48.558;18.150;2022-09-09T12:30:46;99380.28;;;26.99;45.06
54592;BME280;40488;48.558;18.150;2022-09-09T12:33:18;99378.63;;;26.86;44.88
54592;BME280;40488;48.558;18.150;2022-09-09T12:35:53;99371.44;;;26.77;44.51
54592;BME280;40488;48.558;18.150;2022-09-09T12:38:30;99371.91;;;26.58;43.90
54592;BME280;40488;48.558;18.150;2022-09-09T12:41:02;99368.66;;;26.42;44.02
54592;BME280;40488;48.558;18.150;2022-09-09T12:43:31;99363.63;;;26.51;44.31
54592;BME280;40488;48.558;18.150;2022-09-09T12:46:01;99367.13;;;26.76;44.20
54592;BME280;40488;48.558;18.150;2022-09-09T12:48:35;99361.31;;;26.96;43.57
54592;BME280;40488;48.558;18.150;2022-09-09T12:51:07;99365.25;;;27.25;43.81
54592;BME280;40488;48.558;18.150;2022-09-09T12:53:45;99362.47;;;27.39;43.47
54592;BME280;40488;48.558;18.150;2022-09-09T12:56:21;99357.72;;;27.20;44.48
54592;BME280;40488;48.558;18.150;2022-09-09T12:58:53;99354.88;;;27.00;44.95
54592;BME280;40488;48.558;18.150;2022-09-09T13:01:25;99357.69;;;26.86;44.95
54592;BME280;40488;48.558;18.150;2022-09-09T13:03:55;99348.25;;;26.83;45.90
54592;BME280;40488;48.558;18.150;2022-09-09T13:06:27;99344.06;;;26.81;45.25
54592;BME280;40488;48.558;18.150;2022-09-09T13:08:58;99343.47;;;26.77;44.92
54592;BME280;40488;48.558;18.150;2022-09-09T13:11:31;99345.16;;;26.66;44.16
54592;BME280;40488;48.558;18.150;2022-09-09T13:14:03;99342.69;;;26.88;45.37
54592;BME280;40488;48.558;18.150;2022-09-09T13:16:34;99337.50;;;26.99;44.51
54592;BME280;40488;48.558;18.150;2022-09-09T13:19:13;99343.19;;;26.93;44.13
54592;BME280;40488;48.558;18.150;2022-09-09T13:21:43;99338.00;;;27.04;44.61
54592;BME280;40488;48.558;18.150;2022-09-09T13:24:26;99333.41;;;26.95;43.71
54592;BME280;40488;48.558;18.150;2022-09-09T13:27:00;99333.09;;;26.76;43.08
54592;BME280;40488;48.558;18.150;2022-09-09T13:29:30;99322.25;;;26.56;43.68
54592;BME280;40488;48.558;18.150;2022-09-09T13:32:03;99320.31;;;26.35;44.18
54592;BME280;40488;48.558;18.150;2022-09-09T13:34:34;99313.91;;;26.15;43.98
54592;BME280;40488;48.558;18.150;2022-09-09T13:37:05;99311.34;;;26.01;43.50
54592;BME280;40488;48.558;18.150;2022-09-09T13:39:36;99310.34;;;25.91;44.21